Airfield :
LOGIN :

Register | Disclaimer

   EN    FR    IT 

 










Legend :    VFR   Marginal VFR   IFR   Intensive IFR   Very Intensive IFR
Visi :
Ceiling :
>= 8 km
>= 3000ft
5 to 8 km
1000 to 3000 ft
1500m to 5 km
500 to 1000 ft
800 to 1500m
200 to 500 ft
< 800m
< 200 ft
Symbols :   Thunderstorms  Fog  Heavy snow  Heavy precipitations  Wind > 20 kt
SIGMETs :     Misc.  Thunderstorms  Icing  Turbulence  Mountain Waves  Volcanic Ashes







- Airport Elevation : 202 ft
- IATA code : LGW
- Download approach charts


EGKK - London Gatwick

CURRENT METAR :
  • 250620Z 32006KT 280V340 4000 BR BKN005 13/12 Q1017

EXPIRED METARs :
  • 250550Z 31005KT 270V340 4500 BR BKN005 13/12 Q1017
  • 250520Z 31005KT 270V350 4500 BR SCT005 BKN009 13/12 Q1017
  • 250450Z 32004KT 280V340 4000 -RADZ FEW004 BKN012 13/12 Q1017
  • 250420Z VRB03KT 4000 -RADZ OVC010 13/12 Q1017 REDZ
  • 250350Z 32005KT 4500 DZ OVC010 13/13 Q1017

TAF TAF EGKK
Valid from the 25 at 06:00 until the 26 at 12:00 UTC


250453Z 2506/2612 VRB03KT 4000 -RADZ BR BKN009
BECMG 2506/2509 9999 NSW SCT030
PROB30
TEMPO 2515/2520 7000 SHRA
BECMG 2600/2603 02010KT
PROB30 2603/2607 3000 BR BKN004
PROB30
TEMPO 2607/2612 4000 +SHRA BKN014 BKN040CB
No reported NOTAMs for that airfield.



MET'MAP, your aeronautical weather chart ! - Copyright ORBIFLY December 2007 - Disclaimer

ORBIFLY MET'MAP TEAM :

Programming & Development : Alexandra Zaïnal
Concept & Development : Baudouin d'Aumeries
Co-Development & Prog : Marc-Olivier Méhu
Technical & hardware support : Manuel Goepfert

Contact : metmap@orbifly.com




SOURCES & CREDITS :

   NOAA